sensor_id;sensor_type;location;lat;lon;timestamp;P1;durP1;ratioP1;P2;durP2;ratioP2
75542;SDS011;64129;53.508;10.476;2022-12-04T00:01:05;29.27;;;13.30;;
75542;SDS011;64129;53.508;10.476;2022-12-04T00:03:33;30.52;;;13.95;;
75542;SDS011;64129;53.508;10.476;2022-12-04T00:06:01;32.42;;;15.43;;
75542;SDS011;64129;53.508;10.476;2022-12-04T00:08:31;37.03;;;17.23;;
75542;SDS011;64129;53.508;10.476;2022-12-04T00:10:58;36.67;;;15.20;;
75542;SDS011;64129;53.508;10.476;2022-12-04T00:13:25;36.88;;;16.23;;
75542;SDS011;64129;53.508;10.476;2022-12-04T00:15:52;32.17;;;14.40;;
75542;SDS011;64129;53.508;10.476;2022-12-04T00:18:19;30.98;;;14.23;;
75542;SDS011;64129;53.508;10.476;2022-12-04T00:20:45;34.75;;;16.52;;
75542;SDS011;64129;53.508;10.476;2022-12-04T00:23:13;41.33;;;17.10;;
75542;SDS011;64129;53.508;10.476;2022-12-04T00:25:39;39.47;;;16.55;;
75542;SDS011;64129;53.508;10.476;2022-12-04T00:28:06;35.92;;;15.50;;
75542;SDS011;64129;53.508;10.476;2022-12-04T00:30:33;38.45;;;17.30;;
75542;SDS011;64129;53.508;10.476;2022-12-04T00:33:00;36.58;;;15.95;;
75542;SDS011;64129;53.508;10.476;2022-12-04T00:35:26;37.90;;;16.15;;
75542;SDS011;64129;53.508;10.476;2022-12-04T00:37:53;41.13;;;17.60;;
75542;SDS011;64129;53.508;10.476;2022-12-04T00:40:19;37.83;;;17.95;;
75542;SDS011;64129;53.508;10.476;2022-12-04T00:42:46;36.80;;;15.48;;
75542;SDS011;64129;53.508;10.476;2022-12-04T00:45:12;28.63;;;12.95;;
75542;SDS011;64129;53.508;10.476;2022-12-04T00:47:39;41.58;;;17.00;;
75542;SDS011;64129;53.508;10.476;2022-12-04T00:50:05;39.58;;;17.60;;
75542;SDS011;64129;53.508;10.476;2022-12-04T00:52:32;42.90;;;18.35;;
75542;SDS011;64129;53.508;10.476;2022-12-04T00:54:59;36.70;;;16.38;;
75542;SDS011;64129;53.508;10.476;2022-12-04T00:57:25;37.65;;;17.27;;
75542;SDS011;64129;53.508;10.476;2022-12-04T00:59:52;39.72;;;18.25;;
75542;SDS011;64129;53.508;10.476;2022-12-04T01:02:18;42.95;;;16.95;;
75542;SDS011;64129;53.508;10.476;2022-12-04T01:04:45;36.83;;;16.27;;
75542;SDS011;64129;53.508;10.476;2022-12-04T01:07:12;39.58;;;18.02;;
75542;SDS011;64129;53.508;10.476;2022-12-04T01:09:38;37.05;;;15.82;;
75542;SDS011;64129;53.508;10.476;2022-12-04T01:12:05;36.20;;;16.52;;
75542;SDS011;64129;53.508;10.476;2022-12-04T01:14:31;39.33;;;18.65;;
75542;SDS011;64129;53.508;10.476;2022-12-04T01:16:58;39.95;;;16.88;;
75542;SDS011;64129;53.508;10.476;2022-12-04T01:19:24;41.10;;;17.20;;
75542;SDS011;64129;53.508;10.476;2022-12-04T01:21:51;41.03;;;17.42;;
75542;SDS011;64129;53.508;10.476;2022-12-04T01:24:17;38.90;;;16.63;;
75542;SDS011;64129;53.508;10.476;2022-12-04T01:26:44;39.63;;;18.08;;
75542;SDS011;64129;53.508;10.476;2022-12-04T01:29:10;41.53;;;17.40;;
75542;SDS011;64129;53.508;10.476;2022-12-04T01:31:37;34.00;;;16.15;;
75542;SDS011;64129;53.508;10.476;2022-12-04T01:34:03;37.80;;;17.13;;
75542;SDS011;64129;53.508;10.476;2022-12-04T01:36:30;43.05;;;18.52;;
75542;SDS011;64129;53.508;10.476;2022-12-04T01:38:56;36.67;;;15.48;;
75542;SDS011;64129;53.508;10.476;2022-12-04T01:41:24;37.05;;;15.50;;
75542;SDS011;64129;53.508;10.476;2022-12-04T01:46:42;41.13;;;17.42;;
75542;SDS011;64129;53.508;10.476;2022-12-04T01:49:17;36.85;;;17.58;;
75542;SDS011;64129;53.508;10.476;2022-12-04T01:51:47;33.25;;;14.80;;
75542;SDS011;64129;53.508;10.476;2022-12-04T01:54:20;43.75;;;18.85;;
75542;SDS011;64129;53.508;10.476;2022-12-04T01:57:05;36.78;;;16.90;;
75542;SDS011;64129;53.508;10.476;2022-12-04T01:59:38;36.92;;;16.80;;
75542;SDS011;64129;53.508;10.476;2022-12-04T02:02:12;38.42;;;17.48;;
75542;SDS011;64129;53.508;10.476;2022-12-04T02:04:41;41.88;;;17.38;;
75542;SDS011;64129;53.508;10.476;2022-12-04T02:07:09;37.78;;;17.75;;
75542;SDS011;64129;53.508;10.476;2022-12-04T02:09:36;38.92;;;17.85;;
75542;SDS011;64129;53.508;10.476;2022-12-04T02:17:20;36.83;;;16.75;;
75542;SDS011;64129;53.508;10.476;2022-12-04T02:28:04;39.55;;;18.08;;
75542;SDS011;64129;53.508;10.476;2022-12-04T02:30:38;43.78;;;18.52;;
75542;SDS011;64129;53.508;10.476;2022-12-04T02:35:47;42.67;;;18.15;;
75542;SDS011;64129;53.508;10.476;2022-12-04T02:38:24;40.78;;;16.75;;
75542;SDS011;64129;53.508;10.476;2022-12-04T02:41:01;38.95;;;17.38;;
75542;SDS011;64129;53.508;10.476;2022-12-04T02:43:38;44.75;;;18.30;;
75542;SDS011;64129;53.508;10.476;2022-12-04T02:48:42;41.08;;;17.58;;
75542;SDS011;64129;53.508;10.476;2022-12-04T02:51:12;34.55;;;15.75;;
75542;SDS011;64129;53.508;10.476;2022-12-04T02:53:49;39.22;;;17.25;;
75542;SDS011;64129;53.508;10.476;2022-12-04T02:56:29;40.92;;;16.80;;
75542;SDS011;64129;53.508;10.476;2022-12-04T02:59:01;39.20;;;17.98;;
75542;SDS011;64129;53.508;10.476;2022-12-04T03:01:42;38.80;;;17.95;;
75542;SDS011;64129;53.508;10.476;2022-12-04T03:06:57;37.50;;;15.93;;
75542;SDS011;64129;53.508;10.476;2022-12-04T03:09:34;40.35;;;16.67;;
75542;SDS011;64129;53.508;10.476;2022-12-04T03:12:37;40.90;;;18.60;;
75542;SDS011;64129;53.508;10.476;2022-12-04T03:15:23;42.17;;;17.33;;
75542;SDS011;64129;53.508;10.476;2022-12-04T03:17:52;41.78;;;18.23;;
75542;SDS011;64129;53.508;10.476;2022-12-04T03:20:28;43.80;;;19.30;;
75542;SDS011;64129;53.508;10.476;2022-12-04T03:22:59;40.55;;;17.60;;
75542;SDS011;64129;53.508;10.476;2022-12-04T03:25:33;42.90;;;18.80;;
75542;SDS011;64129;53.508;10.476;2022-12-04T03:28:06;42.13;;;17.85;;
75542;SDS011;64129;53.508;10.476;2022-12-04T03:30:42;37.95;;;17.25;;
75542;SDS011;64129;53.508;10.476;2022-12-04T03:33:16;43.90;;;18.33;;
75542;SDS011;64129;53.508;10.476;2022-12-04T03:35:51;30.88;;;14.63;;
75542;SDS011;64129;53.508;10.476;2022-12-04T03:38:30;43.72;;;18.27;;
75542;SDS011;64129;53.508;10.476;2022-12-04T03:44:04;41.00;;;18.75;;
75542;SDS011;64129;53.508;10.476;2022-12-04T03:46:43;41.63;;;18.00;;
75542;SDS011;64129;53.508;10.476;2022-12-04T03:52:29;37.00;;;16.90;;
75542;SDS011;64129;53.508;10.476;2022-12-04T03:55:05;41.08;;;16.95;;
75542;SDS011;64129;53.508;10.476;2022-12-04T03:57:37;47.03;;;18.63;;
75542;SDS011;64129;53.508;10.476;2022-12-04T04:00:07;43.00;;;17.90;;
75542;SDS011;64129;53.508;10.476;2022-12-04T04:02:41;43.75;;;18.05;;
75542;SDS011;64129;53.508;10.476;2022-12-04T04:05:13;40.15;;;17.25;;
75542;SDS011;64129;53.508;10.476;2022-12-04T04:07:48;40.92;;;18.20;;
75542;SDS011;64129;53.508;10.476;2022-12-04T04:10:19;41.05;;;18.27;;
75542;SDS011;64129;53.508;10.476;2022-12-04T04:12:55;39.88;;;17.48;;
75542;SDS011;64129;53.508;10.476;2022-12-04T04:15:46;38.80;;;16.88;;
75542;SDS011;64129;53.508;10.476;2022-12-04T04:18:35;41.50;;;17.38;;
75542;SDS011;64129;53.508;10.476;2022-12-04T04:21:22;42.35;;;17.52;;
75542;SDS011;64129;53.508;10.476;2022-12-04T04:24:17;45.45;;;19.40;;
75542;SDS011;64129;53.508;10.476;2022-12-04T04:29:20;41.88;;;16.33;;
75542;SDS011;64129;53.508;10.476;2022-12-04T04:32:08;40.95;;;17.35;;
75542;SDS011;64129;53.508;10.476;2022-12-04T04:35:10;39.40;;;16.77;;
75542;SDS011;64129;53.508;10.476;2022-12-04T04:37:49;40.75;;;17.10;;
75542;SDS011;64129;53.508;10.476;2022-12-04T04:40:48;36.88;;;16.17;;
75542;SDS011;64129;53.508;10.476;2022-12-04T04:43:24;41.58;;;18.85;;
75542;SDS011;64129;53.508;10.476;2022-12-04T04:46:40;40.17;;;17.55;;
75542;SDS011;64129;53.508;10.476;2022-12-04T04:49:07;38.30;;;17.48;;
75542;SDS011;64129;53.508;10.476;2022-12-04T04:51:36;44.47;;;18.63;;
75542;SDS011;64129;53.508;10.476;2022-12-04T04:54:05;40.85;;;17.20;;
75542;SDS011;64129;53.508;10.476;2022-12-04T04:56:39;42.38;;;18.50;;
75542;SDS011;64129;53.508;10.476;2022-12-04T04:59:07;39.45;;;18.40;;
75542;SDS011;64129;53.508;10.476;2022-12-04T05:01:34;38.10;;;17.23;;
75542;SDS011;64129;53.508;10.476;2022-12-04T05:04:02;41.10;;;17.65;;
75542;SDS011;64129;53.508;10.476;2022-12-04T05:06:30;41.55;;;18.73;;
75542;SDS011;64129;53.508;10.476;2022-12-04T05:08:56;37.92;;;17.08;;
75542;SDS011;64129;53.508;10.476;2022-12-04T05:11:23;46.33;;;19.05;;
75542;SDS011;64129;53.508;10.476;2022-12-04T05:13:50;35.30;;;17.85;;
75542;SDS011;64129;53.508;10.476;2022-12-04T05:16:17;40.63;;;18.30;;
75542;SDS011;64129;53.508;10.476;2022-12-04T05:18:44;44.13;;;18.27;;
75542;SDS011;64129;53.508;10.476;2022-12-04T05:21:29;41.10;;;17.55;;
75542;SDS011;64129;53.508;10.476;2022-12-04T05:23:56;41.72;;;18.42;;
75542;SDS011;64129;53.508;10.476;2022-12-04T05:26:23;47.85;;;19.10;;
75542;SDS011;64129;53.508;10.476;2022-12-04T05:28:49;36.42;;;17.13;;
75542;SDS011;64129;53.508;10.476;2022-12-04T05:31:16;41.92;;;18.65;;
75542;SDS011;64129;53.508;10.476;2022-12-04T05:33:42;41.35;;;17.70;;
75542;SDS011;64129;53.508;10.476;2022-12-04T05:36:09;39.17;;;16.58;;
75542;SDS011;64129;53.508;10.476;2022-12-04T05:38:36;35.03;;;15.57;;
75542;SDS011;64129;53.508;10.476;2022-12-04T05:41:04;40.80;;;19.00;;
75542;SDS011;64129;53.508;10.476;2022-12-04T05:46:02;37.78;;;16.35;;
75542;SDS011;64129;53.508;10.476;2022-12-04T05:48:31;44.80;;;19.30;;
75542;SDS011;64129;53.508;10.476;2022-12-04T05:51:00;43.38;;;18.10;;
75542;SDS011;64129;53.508;10.476;2022-12-04T05:53:30;42.90;;;19.25;;
75542;SDS011;64129;53.508;10.476;2022-12-04T05:55:58;43.67;;;18.95;;
75542;SDS011;64129;53.508;10.476;2022-12-04T05:58:26;44.30;;;18.95;;
75542;SDS011;64129;53.508;10.476;2022-12-04T06:00:53;48.42;;;20.30;;
75542;SDS011;64129;53.508;10.476;2022-12-04T06:03:19;44.10;;;18.80;;
75542;SDS011;64129;53.508;10.476;2022-12-04T06:05:46;46.47;;;19.63;;
75542;SDS011;64129;53.508;10.476;2022-12-04T06:08:13;46.35;;;19.40;;
75542;SDS011;64129;53.508;10.476;2022-12-04T06:10:40;47.22;;;19.25;;
75542;SDS011;64129;53.508;10.476;2022-12-04T06:13:06;40.22;;;17.35;;
75542;SDS011;64129;53.508;10.476;2022-12-04T06:15:37;42.35;;;18.80;;
75542;SDS011;64129;53.508;10.476;2022-12-04T06:18:04;44.55;;;18.70;;
75542;SDS011;64129;53.508;10.476;2022-12-04T06:20:31;44.53;;;18.48;;
75542;SDS011;64129;53.508;10.476;2022-12-04T06:22:58;39.50;;;17.23;;
75542;SDS011;64129;53.508;10.476;2022-12-04T06:25:24;48.22;;;18.90;;
75542;SDS011;64129;53.508;10.476;2022-12-04T06:27:51;44.22;;;19.33;;
75542;SDS011;64129;53.508;10.476;2022-12-04T06:30:18;47.15;;;20.17;;
75542;SDS011;64129;53.508;10.476;2022-12-04T06:32:44;41.75;;;18.20;;
75542;SDS011;64129;53.508;10.476;2022-12-04T06:35:10;47.97;;;19.55;;
75542;SDS011;64129;53.508;10.476;2022-12-04T06:37:37;45.17;;;20.23;;
75542;SDS011;64129;53.508;10.476;2022-12-04T06:40:04;42.75;;;19.20;;
75542;SDS011;64129;53.508;10.476;2022-12-04T06:42:31;45.80;;;19.35;;
75542;SDS011;64129;53.508;10.476;2022-12-04T06:44:57;48.60;;;19.38;;
75542;SDS011;64129;53.508;10.476;2022-12-04T06:47:24;48.47;;;19.52;;
75542;SDS011;64129;53.508;10.476;2022-12-04T06:49:50;44.78;;;18.30;;
75542;SDS011;64129;53.508;10.476;2022-12-04T06:52:17;40.90;;;18.63;;
75542;SDS011;64129;53.508;10.476;2022-12-04T06:54:44;48.38;;;21.05;;
75542;SDS011;64129;53.508;10.476;2022-12-04T06:57:10;46.97;;;19.83;;
75542;SDS011;64129;53.508;10.476;2022-12-04T06:59:37;53.10;;;19.70;;
75542;SDS011;64129;53.508;10.476;2022-12-04T07:02:03;51.53;;;19.45;;
75542;SDS011;64129;53.508;10.476;2022-12-04T07:04:30;48.22;;;20.60;;
75542;SDS011;64129;53.508;10.476;2022-12-04T07:06:57;43.17;;;19.33;;
75542;SDS011;64129;53.508;10.476;2022-12-04T07:09:23;45.17;;;19.50;;
75542;SDS011;64129;53.508;10.476;2022-12-04T07:11:49;44.55;;;19.83;;
75542;SDS011;64129;53.508;10.476;2022-12-04T07:14:16;48.55;;;20.73;;
75542;SDS011;64129;53.508;10.476;2022-12-04T07:16:42;48.55;;;21.73;;
75542;SDS011;64129;53.508;10.476;2022-12-04T07:19:09;48.30;;;20.75;;
75542;SDS011;64129;53.508;10.476;2022-12-04T07:21:37;53.40;;;20.75;;
75542;SDS011;64129;53.508;10.476;2022-12-04T07:24:04;46.88;;;20.20;;
75542;SDS011;64129;53.508;10.476;2022-12-04T07:26:31;51.58;;;21.45;;
75542;SDS011;64129;53.508;10.476;2022-12-04T07:28:58;45.42;;;17.48;;
75542;SDS011;64129;53.508;10.476;2022-12-04T07:31:27;49.95;;;19.25;;
75542;SDS011;64129;53.508;10.476;2022-12-04T07:33:55;46.20;;;19.35;;
75542;SDS011;64129;53.508;10.476;2022-12-04T07:36:22;43.47;;;18.85;;
75542;SDS011;64129;53.508;10.476;2022-12-04T07:38:50;54.28;;;21.70;;
75542;SDS011;64129;53.508;10.476;2022-12-04T07:41:17;58.83;;;21.33;;
75542;SDS011;64129;53.508;10.476;2022-12-04T07:43:44;53.38;;;21.25;;
75542;SDS011;64129;53.508;10.476;2022-12-04T07:46:14;46.75;;;20.13;;
75542;SDS011;64129;53.508;10.476;2022-12-04T07:48:45;52.63;;;22.23;;
75542;SDS011;64129;53.508;10.476;2022-12-04T07:51:19;52.05;;;20.40;;
75542;SDS011;64129;53.508;10.476;2022-12-04T07:53:48;44.03;;;20.00;;
75542;SDS011;64129;53.508;10.476;2022-12-04T07:56:16;50.80;;;21.85;;
75542;SDS011;64129;53.508;10.476;2022-12-04T07:58:43;48.67;;;20.75;;
75542;SDS011;64129;53.508;10.476;2022-12-04T08:01:16;47.83;;;19.63;;
75542;SDS011;64129;53.508;10.476;2022-12-04T08:03:47;47.25;;;19.40;;
75542;SDS011;64129;53.508;10.476;2022-12-04T08:06:15;53.28;;;20.83;;
75542;SDS011;64129;53.508;10.476;2022-12-04T08:08:44;50.33;;;22.13;;
75542;SDS011;64129;53.508;10.476;2022-12-04T08:11:12;45.67;;;19.70;;
75542;SDS011;64129;53.508;10.476;2022-12-04T08:13:40;48.58;;;21.70;;
75542;SDS011;64129;53.508;10.476;2022-12-04T08:16:07;50.58;;;22.08;;
75542;SDS011;64129;53.508;10.476;2022-12-04T08:18:35;50.80;;;21.30;;
75542;SDS011;64129;53.508;10.476;2022-12-04T08:21:06;47.25;;;21.48;;
75542;SDS011;64129;53.508;10.476;2022-12-04T08:23:33;44.30;;;20.60;;
75542;SDS011;64129;53.508;10.476;2022-12-04T08:26:00;45.22;;;20.85;;
75542;SDS011;64129;53.508;10.476;2022-12-04T08:28:27;50.08;;;21.65;;
75542;SDS011;64129;53.508;10.476;2022-12-04T08:30:54;48.47;;;21.27;;
75542;SDS011;64129;53.508;10.476;2022-12-04T08:33:21;48.22;;;20.95;;
75542;SDS011;64129;53.508;10.476;2022-12-04T08:35:47;42.50;;;20.15;;
75542;SDS011;64129;53.508;10.476;2022-12-04T08:38:14;47.10;;;21.50;;
75542;SDS011;64129;53.508;10.476;2022-12-04T08:40:40;47.42;;;19.77;;
75542;SDS011;64129;53.508;10.476;2022-12-04T08:43:07;48.55;;;21.05;;
75542;SDS011;64129;53.508;10.476;2022-12-04T08:45:33;50.15;;;20.48;;
75542;SDS011;64129;53.508;10.476;2022-12-04T08:48:00;43.63;;;18.15;;
75542;SDS011;64129;53.508;10.476;2022-12-04T08:50:26;41.53;;;17.70;;
75542;SDS011;64129;53.508;10.476;2022-12-04T08:52:53;44.78;;;18.67;;
75542;SDS011;64129;53.508;10.476;2022-12-04T08:55:19;44.58;;;19.98;;
75542;SDS011;64129;53.508;10.476;2022-12-04T08:57:45;42.22;;;19.63;;
75542;SDS011;64129;53.508;10.476;2022-12-04T09:00:12;45.33;;;20.25;;
75542;SDS011;64129;53.508;10.476;2022-12-04T09:02:40;41.50;;;18.50;;
75542;SDS011;64129;53.508;10.476;2022-12-04T09:05:07;45.80;;;18.98;;
75542;SDS011;64129;53.508;10.476;2022-12-04T09:07:33;44.05;;;19.00;;
75542;SDS011;64129;53.508;10.476;2022-12-04T09:10:00;44.17;;;19.05;;
75542;SDS011;64129;53.508;10.476;2022-12-04T09:12:27;44.15;;;20.52;;
75542;SDS011;64129;53.508;10.476;2022-12-04T09:14:53;43.30;;;19.17;;
75542;SDS011;64129;53.508;10.476;2022-12-04T09:17:20;42.88;;;21.40;;
75542;SDS011;64129;53.508;10.476;2022-12-04T09:19:46;41.08;;;18.67;;
75542;SDS011;64129;53.508;10.476;2022-12-04T09:22:13;47.97;;;20.38;;
75542;SDS011;64129;53.508;10.476;2022-12-04T09:24:39;39.95;;;19.33;;
75542;SDS011;64129;53.508;10.476;2022-12-04T09:27:06;48.78;;;19.80;;
75542;SDS011;64129;53.508;10.476;2022-12-04T09:29:35;41.78;;;19.17;;
75542;SDS011;64129;53.508;10.476;2022-12-04T09:32:01;41.08;;;19.63;;
75542;SDS011;64129;53.508;10.476;2022-12-04T09:34:28;39.42;;;17.90;;
75542;SDS011;64129;53.508;10.476;2022-12-04T09:36:54;38.33;;;18.77;;
75542;SDS011;64129;53.508;10.476;2022-12-04T09:39:21;44.08;;;19.13;;
75542;SDS011;64129;53.508;10.476;2022-12-04T09:49:50;40.15;;;19.25;;
75542;SDS011;64129;53.508;10.476;2022-12-04T09:52:27;42.67;;;18.90;;
75542;SDS011;64129;53.508;10.476;2022-12-04T09:55:02;42.17;;;18.92;;
75542;SDS011;64129;53.508;10.476;2022-12-04T09:57:33;40.25;;;18.15;;
75542;SDS011;64129;53.508;10.476;2022-12-04T10:00:03;43.75;;;18.42;;
75542;SDS011;64129;53.508;10.476;2022-12-04T10:02:39;39.70;;;18.05;;
75542;SDS011;64129;53.508;10.476;2022-12-04T10:05:18;38.83;;;17.67;;
75542;SDS011;64129;53.508;10.476;2022-12-04T10:08:09;40.33;;;19.30;;
75542;SDS011;64129;53.508;10.476;2022-12-04T10:10:51;40.97;;;17.65;;
75542;SDS011;64129;53.508;10.476;2022-12-04T10:16:22;37.60;;;18.00;;
75542;SDS011;64129;53.508;10.476;2022-12-04T10:19:08;37.80;;;17.08;;
75542;SDS011;64129;53.508;10.476;2022-12-04T10:24:42;39.60;;;18.23;;
75542;SDS011;64129;53.508;10.476;2022-12-04T10:27:22;36.75;;;16.13;;
75542;SDS011;64129;53.508;10.476;2022-12-04T10:29:52;37.33;;;17.02;;
75542;SDS011;64129;53.508;10.476;2022-12-04T10:32:24;38.60;;;17.52;;
75542;SDS011;64129;53.508;10.476;2022-12-04T10:34:55;40.40;;;16.67;;
75542;SDS011;64129;53.508;10.476;2022-12-04T10:37:24;37.63;;;17.38;;
75542;SDS011;64129;53.508;10.476;2022-12-04T10:45:01;38.10;;;18.05;;
75542;SDS011;64129;53.508;10.476;2022-12-04T10:47:27;36.65;;;16.55;;
75542;SDS011;64129;53.508;10.476;2022-12-04T10:49:57;42.13;;;17.75;;
75542;SDS011;64129;53.508;10.476;2022-12-04T10:52:25;39.97;;;18.85;;
75542;SDS011;64129;53.508;10.476;2022-12-04T10:54:54;40.00;;;16.88;;
75542;SDS011;64129;53.508;10.476;2022-12-04T10:57:34;36.70;;;18.77;;
75542;SDS011;64129;53.508;10.476;2022-12-04T11:00:03;37.72;;;19.30;;
75542;SDS011;64129;53.508;10.476;2022-12-04T11:02:49;37.53;;;17.52;;
75542;SDS011;64129;53.508;10.476;2022-12-04T11:05:22;38.00;;;17.52;;
75542;SDS011;64129;53.508;10.476;2022-12-04T11:07:49;44.55;;;21.00;;
75542;SDS011;64129;53.508;10.476;2022-12-04T11:10:21;34.75;;;17.35;;
75542;SDS011;64129;53.508;10.476;2022-12-04T11:15:41;35.50;;;17.17;;
75542;SDS011;64129;53.508;10.476;2022-12-04T11:18:19;38.22;;;19.02;;
75542;SDS011;64129;53.508;10.476;2022-12-04T11:20:54;35.90;;;18.10;;
75542;SDS011;64129;53.508;10.476;2022-12-04T11:23:24;37.33;;;17.02;;
75542;SDS011;64129;53.508;10.476;2022-12-04T11:25:53;38.65;;;18.10;;
75542;SDS011;64129;53.508;10.476;2022-12-04T11:28:24;34.75;;;17.67;;
75542;SDS011;64129;53.508;10.476;2022-12-04T11:31:10;40.97;;;17.02;;
75542;SDS011;64129;53.508;10.476;2022-12-04T11:33:44;40.88;;;17.88;;
75542;SDS011;64129;53.508;10.476;2022-12-04T11:36:24;39.20;;;19.17;;
75542;SDS011;64129;53.508;10.476;2022-12-04T11:39:06;38.45;;;19.98;;
75542;SDS011;64129;53.508;10.476;2022-12-04T11:41:43;37.78;;;17.92;;
75542;SDS011;64129;53.508;10.476;2022-12-04T11:44:27;39.63;;;18.17;;
75542;SDS011;64129;53.508;10.476;2022-12-04T11:46:56;36.22;;;16.85;;
75542;SDS011;64129;53.508;10.476;2022-12-04T11:49:25;38.15;;;18.13;;
75542;SDS011;64129;53.508;10.476;2022-12-04T11:51:56;40.00;;;18.85;;
75542;SDS011;64129;53.508;10.476;2022-12-04T11:54:29;38.80;;;17.75;;
75542;SDS011;64129;53.508;10.476;2022-12-04T12:05:10;38.13;;;17.77;;
75542;SDS011;64129;53.508;10.476;2022-12-04T12:16:00;37.22;;;18.40;;
75542;SDS011;64129;53.508;10.476;2022-12-04T12:21:31;39.72;;;18.33;;
75542;SDS011;64129;53.508;10.476;2022-12-04T12:24:35;36.63;;;17.73;;
75542;SDS011;64129;53.508;10.476;2022-12-04T12:32:53;35.67;;;16.50;;
75542;SDS011;64129;53.508;10.476;2022-12-04T12:35:29;32.95;;;15.93;;
75542;SDS011;64129;53.508;10.476;2022-12-04T12:38:04;36.70;;;16.75;;
75542;SDS011;64129;53.508;10.476;2022-12-04T12:48:52;33.88;;;14.95;;
75542;SDS011;64129;53.508;10.476;2022-12-04T12:51:30;38.22;;;17.48;;
75542;SDS011;64129;53.508;10.476;2022-12-04T12:54:07;35.67;;;18.38;;
75542;SDS011;64129;53.508;10.476;2022-12-04T12:56:36;35.28;;;15.27;;
75542;SDS011;64129;53.508;10.476;2022-12-04T13:01:46;33.10;;;16.10;;
75542;SDS011;64129;53.508;10.476;2022-12-04T13:04:29;36.80;;;17.00;;
75542;SDS011;64129;53.508;10.476;2022-12-04T13:07:13;31.88;;;15.75;;
75542;SDS011;64129;53.508;10.476;2022-12-04T13:10:00;31.20;;;15.40;;
75542;SDS011;64129;53.508;10.476;2022-12-04T13:12:36;36.22;;;16.98;;
75542;SDS011;64129;53.508;10.476;2022-12-04T13:15:21;32.22;;;15.80;;
75542;SDS011;64129;53.508;10.476;2022-12-04T13:17:52;33.92;;;17.10;;
75542;SDS011;64129;53.508;10.476;2022-12-04T13:20:26;34.10;;;16.67;;
75542;SDS011;64129;53.508;10.476;2022-12-04T13:23:05;35.25;;;18.05;;
75542;SDS011;64129;53.508;10.476;2022-12-04T13:25:44;36.10;;;16.35;;
75542;SDS011;64129;53.508;10.476;2022-12-04T13:28:26;34.35;;;16.20;;
75542;SDS011;64129;53.508;10.476;2022-12-04T13:37:34;36.45;;;16.80;;
75542;SDS011;64129;53.508;10.476;2022-12-04T13:45:47;39.67;;;17.65;;
75542;SDS011;64129;53.508;10.476;2022-12-04T13:48:27;36.28;;;17.38;;
75542;SDS011;64129;53.508;10.476;2022-12-04T13:51:00;37.60;;;17.35;;
75542;SDS011;64129;53.508;10.476;2022-12-04T13:53:32;32.33;;;15.45;;
75542;SDS011;64129;53.508;10.476;2022-12-04T13:56:02;41.28;;;19.45;;
75542;SDS011;64129;53.508;10.476;2022-12-04T13:58:33;41.63;;;18.50;;
75542;SDS011;64129;53.508;10.476;2022-12-04T14:03:33;41.15;;;16.88;;
75542;SDS011;64129;53.508;10.476;2022-12-04T14:09:19;46.53;;;20.65;;
75542;SDS011;64129;53.508;10.476;2022-12-04T14:11:51;40.67;;;19.75;;
75542;SDS011;64129;53.508;10.476;2022-12-04T14:14:27;38.75;;;18.58;;
75542;SDS011;64129;53.508;10.476;2022-12-04T14:16:57;41.75;;;18.35;;
75542;SDS011;64129;53.508;10.476;2022-12-04T14:19:26;40.40;;;20.23;;
75542;SDS011;64129;53.508;10.476;2022-12-04T14:21:58;35.95;;;18.40;;
75542;SDS011;64129;53.508;10.476;2022-12-04T14:26:55;37.63;;;17.95;;
75542;SDS011;64129;53.508;10.476;2022-12-04T14:29:46;40.40;;;17.65;;
75542;SDS011;64129;53.508;10.476;2022-12-04T14:32:20;33.33;;;16.75;;
75542;SDS011;64129;53.508;10.476;2022-12-04T14:34:49;35.08;;;17.73;;
75542;SDS011;64129;53.508;10.476;2022-12-04T14:37:18;37.08;;;18.30;;
75542;SDS011;64129;53.508;10.476;2022-12-04T14:39:50;37.60;;;17.45;;
75542;SDS011;64129;53.508;10.476;2022-12-04T14:42:22;40.03;;;18.35;;
75542;SDS011;64129;53.508;10.476;2022-12-04T14:44:55;42.22;;;18.13;;
75542;SDS011;64129;53.508;10.476;2022-12-04T14:47:32;40.35;;;18.23;;
75542;SDS011;64129;53.508;10.476;2022-12-04T14:53:24;39.13;;;18.10;;
75542;SDS011;64129;53.508;10.476;2022-12-04T14:58:37;37.78;;;17.48;;
75542;SDS011;64129;53.508;10.476;2022-12-04T15:01:05;43.03;;;19.65;;
75542;SDS011;64129;53.508;10.476;2022-12-04T15:03:46;41.30;;;20.00;;
75542;SDS011;64129;53.508;10.476;2022-12-04T15:06:37;42.00;;;19.30;;
75542;SDS011;64129;53.508;10.476;2022-12-04T15:09:12;38.78;;;17.77;;
75542;SDS011;64129;53.508;10.476;2022-12-04T15:11:59;40.67;;;18.23;;
75542;SDS011;64129;53.508;10.476;2022-12-04T15:14:56;41.22;;;18.40;;
75542;SDS011;64129;53.508;10.476;2022-12-04T15:17:24;44.17;;;20.85;;
75542;SDS011;64129;53.508;10.476;2022-12-04T15:19:50;43.28;;;20.10;;
75542;SDS011;64129;53.508;10.476;2022-12-04T15:22:35;39.13;;;19.20;;
75542;SDS011;64129;53.508;10.476;2022-12-04T15:25:02;33.92;;;16.13;;
75542;SDS011;64129;53.508;10.476;2022-12-04T15:27:31;42.25;;;18.77;;
75542;SDS011;64129;53.508;10.476;2022-12-04T15:29:58;40.20;;;18.52;;
75542;SDS011;64129;53.508;10.476;2022-12-04T15:32:27;42.85;;;19.92;;
75542;SDS011;64129;53.508;10.476;2022-12-04T15:35:00;41.75;;;19.30;;
75542;SDS011;64129;53.508;10.476;2022-12-04T15:37:30;40.75;;;18.27;;
75542;SDS011;64129;53.508;10.476;2022-12-04T15:39:57;40.78;;;17.92;;
75542;SDS011;64129;53.508;10.476;2022-12-04T15:42:26;36.42;;;16.70;;
75542;SDS011;64129;53.508;10.476;2022-12-04T15:45:21;31.88;;;15.43;;
75542;SDS011;64129;53.508;10.476;2022-12-04T15:47:50;37.67;;;17.35;;
75542;SDS011;64129;53.508;10.476;2022-12-04T15:55:15;30.85;;;14.85;;
75542;SDS011;64129;53.508;10.476;2022-12-04T15:57:49;36.72;;;17.50;;
75542;SDS011;64129;53.508;10.476;2022-12-04T16:00:31;33.08;;;16.30;;
75542;SDS011;64129;53.508;10.476;2022-12-04T16:03:01;29.15;;;15.68;;
75542;SDS011;64129;53.508;10.476;2022-12-04T16:05:33;31.02;;;15.05;;
75542;SDS011;64129;53.508;10.476;2022-12-04T16:08:21;29.10;;;14.30;;
75542;SDS011;64129;53.508;10.476;2022-12-04T16:10:57;28.85;;;15.63;;
75542;SDS011;64129;53.508;10.476;2022-12-04T16:13:32;25.63;;;12.88;;
75542;SDS011;64129;53.508;10.476;2022-12-04T16:16:03;36.28;;;15.27;;
75542;SDS011;64129;53.508;10.476;2022-12-04T16:18:36;26.15;;;14.13;;
75542;SDS011;64129;53.508;10.476;2022-12-04T16:21:03;29.77;;;15.35;;
75542;SDS011;64129;53.508;10.476;2022-12-04T16:23:30;26.35;;;13.93;;
75542;SDS011;64129;53.508;10.476;2022-12-04T16:25:57;25.85;;;14.75;;
75542;SDS011;64129;53.508;10.476;2022-12-04T16:28:24;26.45;;;13.15;;
75542;SDS011;64129;53.508;10.476;2022-12-04T16:30:50;25.92;;;14.13;;
75542;SDS011;64129;53.508;10.476;2022-12-04T16:33:20;24.13;;;13.63;;
75542;SDS011;64129;53.508;10.476;2022-12-04T16:35:46;24.73;;;13.95;;
75542;SDS011;64129;53.508;10.476;2022-12-04T16:38:14;25.67;;;13.00;;